sensor_id;sensor_type;location;lat;lon;timestamp;pressure;altitude;pressure_sealevel;temperature;humidity
16190;BME280;41754;51.498;7.540;2023-06-10T00:00:00;100229.03;;;17.93;59.31
16190;BME280;41754;51.498;7.540;2023-06-10T00:02:38;100232.00;;;17.90;59.76
16190;BME280;41754;51.498;7.540;2023-06-10T00:05:06;100231.28;;;17.88;59.49
16190;BME280;41754;51.498;7.540;2023-06-10T00:07:37;100231.88;;;17.82;59.84
16190;BME280;41754;51.498;7.540;2023-06-10T00:10:06;100235.13;;;17.75;60.70
16190;BME280;41754;51.498;7.540;2023-06-10T00:12:36;100225.53;;;17.65;61.01
16190;BME280;41754;51.498;7.540;2023-06-10T00:15:06;100230.00;;;17.64;61.07
16190;BME280;41754;51.498;7.540;2023-06-10T00:17:35;100227.94;;;17.58;61.51
16190;BME280;41754;51.498;7.540;2023-06-10T00:20:07;100236.34;;;17.53;61.43
16190;BME280;41754;51.498;7.540;2023-06-10T00:22:37;100236.09;;;17.47;61.74
16190;BME280;41754;51.498;7.540;2023-06-10T00:25:06;100229.09;;;17.46;61.95
16190;BME280;41754;51.498;7.540;2023-06-10T00:27:37;100226.59;;;17.44;61.56
16190;BME280;41754;51.498;7.540;2023-06-10T00:30:06;100227.19;;;17.38;62.08
16190;BME280;41754;51.498;7.540;2023-06-10T00:32:35;100230.97;;;17.35;61.83
16190;BME280;41754;51.498;7.540;2023-06-10T00:35:04;100227.22;;;17.28;62.48
16190;BME280;41754;51.498;7.540;2023-06-10T00:37:33;100233.66;;;17.16;63.55
16190;BME280;41754;51.498;7.540;2023-06-10T00:40:03;100230.47;;;17.12;63.84
16190;BME280;41754;51.498;7.540;2023-06-10T00:42:31;100230.31;;;17.14;63.41
16190;BME280;41754;51.498;7.540;2023-06-10T00:45:01;100230.03;;;17.17;62.92
16190;BME280;41754;51.498;7.540;2023-06-10T00:47:29;100228.50;;;17.14;63.31
16190;BME280;41754;51.498;7.540;2023-06-10T00:49:58;100242.38;;;17.18;62.91
16190;BME280;41754;51.498;7.540;2023-06-10T00:52:28;100235.34;;;17.17;62.67
16190;BME280;41754;51.498;7.540;2023-06-10T00:54:56;100235.78;;;17.12;63.22
16190;BME280;41754;51.498;7.540;2023-06-10T00:57:25;100237.63;;;17.12;63.52
16190;BME280;41754;51.498;7.540;2023-06-10T00:59:54;100232.31;;;17.02;64.32
16190;BME280;41754;51.498;7.540;2023-06-10T01:02:23;100237.94;;;16.89;64.45
16190;BME280;41754;51.498;7.540;2023-06-10T01:04:51;100236.25;;;16.88;64.65
16190;BME280;41754;51.498;7.540;2023-06-10T01:07:23;100236.13;;;16.90;64.26
16190;BME280;41754;51.498;7.540;2023-06-10T01:09:55;100234.56;;;16.87;64.27
16190;BME280;41754;51.498;7.540;2023-06-10T01:12:31;100242.53;;;16.77;65.24
16190;BME280;41754;51.498;7.540;2023-06-10T01:15:00;100245.63;;;16.73;65.08
16190;BME280;41754;51.498;7.540;2023-06-10T01:17:30;100240.31;;;16.73;65.19
16190;BME280;41754;51.498;7.540;2023-06-10T01:19:58;100240.72;;;16.68;65.00
16190;BME280;41754;51.498;7.540;2023-06-10T01:22:29;100250.38;;;16.59;66.01
16190;BME280;41754;51.498;7.540;2023-06-10T01:24:59;100246.72;;;16.60;65.58
16190;BME280;41754;51.498;7.540;2023-06-10T01:27:30;100245.91;;;16.60;65.49
16190;BME280;41754;51.498;7.540;2023-06-10T01:30:05;100251.34;;;16.58;65.37
16190;BME280;41754;51.498;7.540;2023-06-10T01:32:43;100251.63;;;16.45;66.41
16190;BME280;41754;51.498;7.540;2023-06-10T01:35:15;100259.59;;;16.45;66.21
16190;BME280;41754;51.498;7.540;2023-06-10T01:37:46;100258.59;;;16.37;67.28
16190;BME280;41754;51.498;7.540;2023-06-10T01:40:15;100247.84;;;16.28;67.31
16190;BME280;41754;51.498;7.540;2023-06-10T01:42:43;100254.69;;;16.31;67.39
16190;BME280;41754;51.498;7.540;2023-06-10T01:45:12;100252.19;;;16.29;67.06
16190;BME280;41754;51.498;7.540;2023-06-10T01:47:40;100256.50;;;16.21;67.57
16190;BME280;41754;51.498;7.540;2023-06-10T01:50:08;100249.38;;;16.21;67.69
16190;BME280;41754;51.498;7.540;2023-06-10T01:52:37;100254.09;;;16.08;68.23
16190;BME280;41754;51.498;7.540;2023-06-10T01:55:06;100251.59;;;16.16;67.76
16190;BME280;41754;51.498;7.540;2023-06-10T01:57:35;100256.50;;;16.11;67.73
16190;BME280;41754;51.498;7.540;2023-06-10T02:00:03;100251.59;;;16.06;67.96
16190;BME280;41754;51.498;7.540;2023-06-10T02:02:40;100259.69;;;16.05;68.48
16190;BME280;41754;51.498;7.540;2023-06-10T02:05:08;100256.59;;;16.00;68.46
16190;BME280;41754;51.498;7.540;2023-06-10T02:07:37;100254.91;;;15.99;68.30
16190;BME280;41754;51.498;7.540;2023-06-10T02:10:07;100250.16;;;15.92;68.72
16190;BME280;41754;51.498;7.540;2023-06-10T02:12:35;100252.38;;;15.87;68.95
16190;BME280;41754;51.498;7.540;2023-06-10T02:15:04;100258.22;;;15.81;68.91
16190;BME280;41754;51.498;7.540;2023-06-10T02:17:32;100251.22;;;15.80;69.07
16190;BME280;41754;51.498;7.540;2023-06-10T02:20:00;100253.41;;;15.75;69.67
16190;BME280;41754;51.498;7.540;2023-06-10T02:22:33;100259.16;;;15.70;69.88
16190;BME280;41754;51.498;7.540;2023-06-10T02:25:01;100254.94;;;15.68;69.71
16190;BME280;41754;51.498;7.540;2023-06-10T02:27:32;100249.91;;;15.65;69.70
16190;BME280;41754;51.498;7.540;2023-06-10T02:30:00;100253.66;;;15.62;69.83
16190;BME280;41754;51.498;7.540;2023-06-10T02:32:30;100256.00;;;15.55;70.21
16190;BME280;41754;51.498;7.540;2023-06-10T02:34:58;100260.88;;;15.50;70.60
16190;BME280;41754;51.498;7.540;2023-06-10T02:37:27;100268.38;;;15.45;71.36
16190;BME280;41754;51.498;7.540;2023-06-10T02:39:56;100259.44;;;15.46;71.07
16190;BME280;41754;51.498;7.540;2023-06-10T02:42:24;100254.16;;;15.46;71.11
16190;BME280;41754;51.498;7.540;2023-06-10T02:44:54;100256.22;;;15.43;71.42
16190;BME280;41754;51.498;7.540;2023-06-10T02:47:32;100257.19;;;15.42;71.53
16190;BME280;41754;51.498;7.540;2023-06-10T02:50:00;100261.66;;;15.41;71.43
16190;BME280;41754;51.498;7.540;2023-06-10T02:52:34;100264.69;;;15.36;71.31
16190;BME280;41754;51.498;7.540;2023-06-10T02:55:02;100265.00;;;15.33;71.36
16190;BME280;41754;51.498;7.540;2023-06-10T02:57:31;100266.19;;;15.29;71.53
16190;BME280;41754;51.498;7.540;2023-06-10T03:00:03;100259.75;;;15.22;71.56
16190;BME280;41754;51.498;7.540;2023-06-10T03:02:36;100271.44;;;15.19;71.85
16190;BME280;41754;51.498;7.540;2023-06-10T03:05:08;100263.03;;;15.14;72.09
16190;BME280;41754;51.498;7.540;2023-06-10T03:07:40;100264.53;;;15.07;72.56
16190;BME280;41754;51.498;7.540;2023-06-10T03:10:08;100267.31;;;15.06;72.72
16190;BME280;41754;51.498;7.540;2023-06-10T03:12:39;100258.53;;;15.05;72.57
16190;BME280;41754;51.498;7.540;2023-06-10T03:15:09;100267.44;;;15.04;72.98
16190;BME280;41754;51.498;7.540;2023-06-10T03:17:37;100264.09;;;15.02;72.83
16190;BME280;41754;51.498;7.540;2023-06-10T03:20:07;100262.78;;;14.96;73.30
16190;BME280;41754;51.498;7.540;2023-06-10T03:22:38;100264.34;;;14.99;73.56
16190;BME280;41754;51.498;7.540;2023-06-10T03:25:09;100261.50;;;14.91;73.81
16190;BME280;41754;51.498;7.540;2023-06-10T03:27:43;100261.63;;;14.89;74.17
16190;BME280;41754;51.498;7.540;2023-06-10T03:30:14;100261.88;;;14.86;74.37
16190;BME280;41754;51.498;7.540;2023-06-10T03:32:43;100266.34;;;14.86;74.55
16190;BME280;41754;51.498;7.540;2023-06-10T03:35:14;100275.69;;;14.90;74.06
16190;BME280;41754;51.498;7.540;2023-06-10T03:37:44;100275.91;;;14.98;73.58
16190;BME280;41754;51.498;7.540;2023-06-10T03:40:12;100277.59;;;14.99;73.49
16190;BME280;41754;51.498;7.540;2023-06-10T03:42:44;100278.75;;;15.06;73.02
16190;BME280;41754;51.498;7.540;2023-06-10T03:45:15;100277.91;;;15.06;73.38
16190;BME280;41754;51.498;7.540;2023-06-10T03:47:45;100285.75;;;15.07;73.34
16190;BME280;41754;51.498;7.540;2023-06-10T03:50:18;100287.69;;;15.05;73.76
16190;BME280;41754;51.498;7.540;2023-06-10T03:52:46;100290.47;;;15.03;73.94
16190;BME280;41754;51.498;7.540;2023-06-10T03:55:17;100289.28;;;15.17;73.26
16190;BME280;41754;51.498;7.540;2023-06-10T03:57:45;100299.13;;;15.27;73.12
16190;BME280;41754;51.498;7.540;2023-06-10T04:00:15;100296.47;;;15.27;72.85
16190;BME280;41754;51.498;7.540;2023-06-10T04:02:44;100295.22;;;15.31;72.51
16190;BME280;41754;51.498;7.540;2023-06-10T04:05:22;100290.38;;;15.36;72.54
16190;BME280;41754;51.498;7.540;2023-06-10T04:07:51;100291.34;;;15.35;72.63
16190;BME280;41754;51.498;7.540;2023-06-10T04:10:20;100296.00;;;15.43;72.53
16190;BME280;41754;51.498;7.540;2023-06-10T04:12:47;100294.63;;;15.48;72.44
16190;BME280;41754;51.498;7.540;2023-06-10T04:15:17;100296.56;;;15.46;72.37
16190;BME280;41754;51.498;7.540;2023-06-10T04:17:45;100304.97;;;15.51;72.50
16190;BME280;41754;51.498;7.540;2023-06-10T04:20:14;100296.31;;;15.49;72.55
16190;BME280;41754;51.498;7.540;2023-06-10T04:22:44;100294.28;;;15.63;72.21
16190;BME280;41754;51.498;7.540;2023-06-10T04:25:12;100301.44;;;15.72;71.97
16190;BME280;41754;51.498;7.540;2023-06-10T04:27:41;100296.75;;;15.75;71.53
16190;BME280;41754;51.498;7.540;2023-06-10T04:30:10;100298.41;;;15.76;71.23
16190;BME280;41754;51.498;7.540;2023-06-10T04:32:41;100302.66;;;15.89;71.05
16190;BME280;41754;51.498;7.540;2023-06-10T04:35:14;100302.06;;;15.85;70.95
16190;BME280;41754;51.498;7.540;2023-06-10T04:37:43;100308.28;;;15.95;70.82
16190;BME280;41754;51.498;7.540;2023-06-10T04:40:12;100309.69;;;16.09;70.25
16190;BME280;41754;51.498;7.540;2023-06-10T04:42:40;100311.94;;;16.24;69.93
16190;BME280;41754;51.498;7.540;2023-06-10T04:45:08;100313.09;;;16.31;69.25
16190;BME280;41754;51.498;7.540;2023-06-10T04:47:37;100315.06;;;16.39;69.21
16190;BME280;41754;51.498;7.540;2023-06-10T04:50:08;100318.13;;;16.44;68.94
16190;BME280;41754;51.498;7.540;2023-06-10T04:52:36;100313.84;;;16.53;68.39
16190;BME280;41754;51.498;7.540;2023-06-10T04:55:05;100324.03;;;16.57;68.11
16190;BME280;41754;51.498;7.540;2023-06-10T04:57:33;100314.00;;;16.61;68.02
16190;BME280;41754;51.498;7.540;2023-06-10T05:00:01;100311.63;;;16.67;67.56
16190;BME280;41754;51.498;7.540;2023-06-10T05:02:32;100313.84;;;16.72;67.42
16190;BME280;41754;51.498;7.540;2023-06-10T05:05:00;100314.25;;;16.77;66.95
16190;BME280;41754;51.498;7.540;2023-06-10T05:07:29;100315.28;;;16.86;66.35
16190;BME280;41754;51.498;7.540;2023-06-10T05:09:57;100313.72;;;16.83;66.30
16190;BME280;41754;51.498;7.540;2023-06-10T05:12:24;100313.47;;;16.96;65.67
16190;BME280;41754;51.498;7.540;2023-06-10T05:14:52;100313.16;;;17.09;65.39
16190;BME280;41754;51.498;7.540;2023-06-10T05:17:20;100309.25;;;17.13;65.32
16190;BME280;41754;51.498;7.540;2023-06-10T05:19:48;100307.53;;;17.22;64.84
16190;BME280;41754;51.498;7.540;2023-06-10T05:22:16;100309.31;;;17.41;64.33
16190;BME280;41754;51.498;7.540;2023-06-10T05:24:45;100306.91;;;17.48;63.79
16190;BME280;41754;51.498;7.540;2023-06-10T05:27:13;100307.19;;;17.54;63.80
16190;BME280;41754;51.498;7.540;2023-06-10T05:29:41;100312.47;;;17.64;63.06
16190;BME280;41754;51.498;7.540;2023-06-10T05:32:09;100310.75;;;17.73;62.81
16190;BME280;41754;51.498;7.540;2023-06-10T05:34:37;100308.03;;;17.92;61.47
16190;BME280;41754;51.498;7.540;2023-06-10T05:37:05;100310.75;;;18.10;60.78
16190;BME280;41754;51.498;7.540;2023-06-10T05:39:35;100318.75;;;18.10;60.49
16190;BME280;41754;51.498;7.540;2023-06-10T05:42:06;100317.22;;;18.08;59.75
16190;BME280;41754;51.498;7.540;2023-06-10T05:44:35;100317.34;;;18.06;60.16
16190;BME280;41754;51.498;7.540;2023-06-10T05:47:04;100313.28;;;18.12;60.52
16190;BME280;41754;51.498;7.540;2023-06-10T05:49:32;100315.47;;;18.16;59.93
16190;BME280;41754;51.498;7.540;2023-06-10T05:51:59;100314.38;;;18.37;60.01
16190;BME280;41754;51.498;7.540;2023-06-10T05:54:27;100313.22;;;18.40;59.27
16190;BME280;41754;51.498;7.540;2023-06-10T05:56:56;100319.94;;;18.62;58.80
16190;BME280;41754;51.498;7.540;2023-06-10T05:59:25;100323.53;;;18.52;57.83
16190;BME280;41754;51.498;7.540;2023-06-10T06:01:53;100322.31;;;18.65;58.48
16190;BME280;41754;51.498;7.540;2023-06-10T06:04:21;100324.22;;;18.72;58.11
16190;BME280;41754;51.498;7.540;2023-06-10T06:06:49;100326.13;;;18.80;57.40
16190;BME280;41754;51.498;7.540;2023-06-10T06:09:17;100324.75;;;18.76;57.04
16190;BME280;41754;51.498;7.540;2023-06-10T06:11:44;100327.59;;;18.93;56.70
16190;BME280;41754;51.498;7.540;2023-06-10T06:14:12;100329.81;;;18.97;55.65
16190;BME280;41754;51.498;7.540;2023-06-10T06:16:41;100323.91;;;19.12;56.36
16190;BME280;41754;51.498;7.540;2023-06-10T06:19:09;100327.81;;;19.17;55.46
16190;BME280;41754;51.498;7.540;2023-06-10T06:21:37;100317.78;;;19.37;55.30
16190;BME280;41754;51.498;7.540;2023-06-10T06:24:06;100320.06;;;19.32;55.57
16190;BME280;41754;51.498;7.540;2023-06-10T06:26:34;100324.22;;;19.53;55.49
16190;BME280;41754;51.498;7.540;2023-06-10T06:29:02;100321.44;;;19.62;54.14
16190;BME280;41754;51.498;7.540;2023-06-10T06:31:30;100324.41;;;19.59;54.14
16190;BME280;41754;51.498;7.540;2023-06-10T06:34:00;100321.44;;;19.62;54.21
16190;BME280;41754;51.498;7.540;2023-06-10T06:36:27;100320.22;;;19.57;54.00
16190;BME280;41754;51.498;7.540;2023-06-10T06:38:55;100321.75;;;19.59;54.05
16190;BME280;41754;51.498;7.540;2023-06-10T06:41:26;100328.44;;;19.63;54.13
16190;BME280;41754;51.498;7.540;2023-06-10T06:43:54;100325.28;;;19.94;53.64
16190;BME280;41754;51.498;7.540;2023-06-10T06:46:23;100324.00;;;20.07;53.28
16190;BME280;41754;51.498;7.540;2023-06-10T06:48:51;100328.34;;;20.16;52.81
16190;BME280;41754;51.498;7.540;2023-06-10T06:51:20;100323.38;;;20.13;52.67
16190;BME280;41754;51.498;7.540;2023-06-10T06:53:48;100327.72;;;20.22;52.51
16190;BME280;41754;51.498;7.540;2023-06-10T06:56:17;100338.81;;;20.44;52.35
16190;BME280;41754;51.498;7.540;2023-06-10T06:58:45;100333.88;;;20.65;51.97
16190;BME280;41754;51.498;7.540;2023-06-10T07:01:14;100337.53;;;20.64;51.26
16190;BME280;41754;51.498;7.540;2023-06-10T07:03:42;100335.50;;;20.58;51.16
16190;BME280;41754;51.498;7.540;2023-06-10T07:06:10;100333.72;;;20.75;51.15
16190;BME280;41754;51.498;7.540;2023-06-10T07:08:39;100334.25;;;20.95;50.31
16190;BME280;41754;51.498;7.540;2023-06-10T07:11:07;100340.91;;;20.99;50.28
16190;BME280;41754;51.498;7.540;2023-06-10T07:13:35;100342.22;;;21.36;50.00
16190;BME280;41754;51.498;7.540;2023-06-10T07:16:03;100339.25;;;21.15;49.70
16190;BME280;41754;51.498;7.540;2023-06-10T07:18:31;100340.59;;;21.27;49.92
16190;BME280;41754;51.498;7.540;2023-06-10T07:20:59;100341.25;;;21.37;49.72
16190;BME280;41754;51.498;7.540;2023-06-10T07:23:26;100344.56;;;21.64;49.49
16190;BME280;41754;51.498;7.540;2023-06-10T07:25:56;100341.91;;;21.56;48.88
16190;BME280;41754;51.498;7.540;2023-06-10T07:28:23;100343.38;;;21.66;48.90
16190;BME280;41754;51.498;7.540;2023-06-10T07:30:51;100343.19;;;21.76;49.77
16190;BME280;41754;51.498;7.540;2023-06-10T07:33:19;100339.47;;;21.94;48.93
16190;BME280;41754;51.498;7.540;2023-06-10T07:35:47;100338.66;;;22.24;48.40
16190;BME280;41754;51.498;7.540;2023-06-10T07:38:15;100335.66;;;22.19;47.42
16190;BME280;41754;51.498;7.540;2023-06-10T07:40:42;100341.63;;;22.38;47.85
16190;BME280;41754;51.498;7.540;2023-06-10T07:43:12;100341.53;;;22.54;47.98
16190;BME280;41754;51.498;7.540;2023-06-10T07:45:40;100337.94;;;22.39;46.85
16190;BME280;41754;51.498;7.540;2023-06-10T07:48:08;100342.06;;;22.50;46.90
16190;BME280;41754;51.498;7.540;2023-06-10T07:50:36;100348.19;;;22.58;46.12
16190;BME280;41754;51.498;7.540;2023-06-10T07:53:04;100348.50;;;22.64;45.45
16190;BME280;41754;51.498;7.540;2023-06-10T07:55:31;100346.00;;;22.85;45.67
16190;BME280;41754;51.498;7.540;2023-06-10T07:57:59;100347.69;;;22.86;46.33
16190;BME280;41754;51.498;7.540;2023-06-10T08:00:28;100342.81;;;23.13;45.87
16190;BME280;41754;51.498;7.540;2023-06-10T08:02:56;100343.03;;;22.80;45.01
16190;BME280;41754;51.498;7.540;2023-06-10T08:05:24;100343.91;;;22.95;46.67
16190;BME280;41754;51.498;7.540;2023-06-10T08:07:52;100352.44;;;22.99;45.39
16190;BME280;41754;51.498;7.540;2023-06-10T08:10:20;100347.81;;;22.93;45.81
16190;BME280;41754;51.498;7.540;2023-06-10T08:12:48;100341.31;;;23.10;45.91
16190;BME280;41754;51.498;7.540;2023-06-10T08:15:16;100343.31;;;23.31;44.56
16190;BME280;41754;51.498;7.540;2023-06-10T08:17:45;100340.25;;;23.49;44.31
16190;BME280;41754;51.498;7.540;2023-06-10T08:20:13;100351.78;;;23.58;44.62
16190;BME280;41754;51.498;7.540;2023-06-10T08:22:41;100352.16;;;23.55;44.68
16190;BME280;41754;51.498;7.540;2023-06-10T08:25:09;100354.09;;;23.61;44.32
16190;BME280;41754;51.498;7.540;2023-06-10T08:27:37;100352.16;;;23.70;44.58
16190;BME280;41754;51.498;7.540;2023-06-10T08:30:06;100348.81;;;23.68;43.83
16190;BME280;41754;51.498;7.540;2023-06-10T08:32:36;100343.72;;;23.73;43.86
16190;BME280;41754;51.498;7.540;2023-06-10T08:35:06;100357.06;;;23.96;43.36
16190;BME280;41754;51.498;7.540;2023-06-10T08:37:35;100350.59;;;23.91;43.30
16190;BME280;41754;51.498;7.540;2023-06-10T08:40:03;100350.06;;;23.95;43.70
16190;BME280;41754;51.498;7.540;2023-06-10T08:42:33;100355.22;;;24.12;42.08
16190;BME280;41754;51.498;7.540;2023-06-10T08:45:03;100356.88;;;24.13;42.29
16190;BME280;41754;51.498;7.540;2023-06-10T08:47:35;100347.53;;;24.45;43.21
16190;BME280;41754;51.498;7.540;2023-06-10T08:50:06;100355.09;;;24.20;43.14
16190;BME280;41754;51.498;7.540;2023-06-10T08:52:42;100352.97;;;24.30;42.98
16190;BME280;41754;51.498;7.540;2023-06-10T08:55:12;100345.97;;;24.51;42.84
16190;BME280;41754;51.498;7.540;2023-06-10T08:57:42;100352.03;;;24.74;43.17
16190;BME280;41754;51.498;7.540;2023-06-10T09:00:12;100350.34;;;24.95;41.60
16190;BME280;41754;51.498;7.540;2023-06-10T09:02:41;100353.34;;;25.07;41.45
16190;BME280;41754;51.498;7.540;2023-06-10T09:05:11;100356.38;;;24.97;42.56
16190;BME280;41754;51.498;7.540;2023-06-10T09:07:39;100343.31;;;24.94;41.47
16190;BME280;41754;51.498;7.540;2023-06-10T09:10:08;100353.09;;;24.80;41.62
16190;BME280;41754;51.498;7.540;2023-06-10T09:12:36;100344.84;;;25.03;41.40
16190;BME280;41754;51.498;7.540;2023-06-10T09:15:06;100342.78;;;25.27;40.92
16190;BME280;41754;51.498;7.540;2023-06-10T09:17:34;100345.00;;;25.45;41.58
16190;BME280;41754;51.498;7.540;2023-06-10T09:20:05;100343.38;;;25.50;41.36
16190;BME280;41754;51.498;7.540;2023-06-10T09:22:38;100343.88;;;25.67;41.91
16190;BME280;41754;51.498;7.540;2023-06-10T09:25:09;100345.38;;;25.70;39.72
16190;BME280;41754;51.498;7.540;2023-06-10T09:27:44;100339.53;;;25.66;39.85
16190;BME280;41754;51.498;7.540;2023-06-10T09:30:24;100342.41;;;25.58;39.74
16190;BME280;41754;51.498;7.540;2023-06-10T09:32:54;100341.34;;;25.52;38.82
16190;BME280;41754;51.498;7.540;2023-06-10T09:35:23;100345.16;;;25.71;38.88
16190;BME280;41754;51.498;7.540;2023-06-10T09:37:53;100338.63;;;25.94;39.46
16190;BME280;41754;51.498;7.540;2023-06-10T09:40:21;100339.25;;;26.24;38.38
16190;BME280;41754;51.498;7.540;2023-06-10T09:42:53;100343.31;;;26.07;38.18
16190;BME280;41754;51.498;7.540;2023-06-10T09:45:22;100350.25;;;26.29;38.85
16190;BME280;41754;51.498;7.540;2023-06-10T09:47:53;100349.19;;;26.31;37.76
16190;BME280;41754;51.498;7.540;2023-06-10T09:50:22;100351.72;;;26.39;37.31
16190;BME280;41754;51.498;7.540;2023-06-10T09:52:51;100344.38;;;26.74;37.18
16190;BME280;41754;51.498;7.540;2023-06-10T09:55:20;100347.84;;;26.61;36.06
16190;BME280;41754;51.498;7.540;2023-06-10T09:57:49;100347.19;;;26.53;37.44
16190;BME280;41754;51.498;7.540;2023-06-10T10:00:17;100343.00;;;26.37;38.19
16190;BME280;41754;51.498;7.540;2023-06-10T10:02:46;100346.81;;;26.62;39.86
16190;BME280;41754;51.498;7.540;2023-06-10T10:05:15;100339.38;;;26.71;37.80
16190;BME280;41754;51.498;7.540;2023-06-10T10:07:44;100341.19;;;26.57;37.42
16190;BME280;41754;51.498;7.540;2023-06-10T10:10:14;100345.22;;;26.75;37.64
16190;BME280;41754;51.498;7.540;2023-06-10T10:12:45;100343.56;;;27.14;37.86
16190;BME280;41754;51.498;7.540;2023-06-10T10:15:16;100334.19;;;27.23;36.47
16190;BME280;41754;51.498;7.540;2023-06-10T10:17:47;100339.59;;;26.96;37.98
16190;BME280;41754;51.498;7.540;2023-06-10T10:20:20;100330.28;;;27.19;36.02
16190;BME280;41754;51.498;7.540;2023-06-10T10:22:49;100335.69;;;27.32;36.66
16190;BME280;41754;51.498;7.540;2023-06-10T10:25:23;100330.06;;;27.41;36.75
16190;BME280;41754;51.498;7.540;2023-06-10T10:27:57;100324.84;;;27.52;35.49
16190;BME280;41754;51.498;7.540;2023-06-10T10:30:28;100328.97;;;27.62;34.48
16190;BME280;41754;51.498;7.540;2023-06-10T10:33:00;100325.13;;;28.09;35.24
16190;BME280;41754;51.498;7.540;2023-06-10T10:35:36;100316.75;;;28.18;35.66
16190;BME280;41754;51.498;7.540;2023-06-10T10:38:04;100318.34;;;28.32;36.96
16190;BME280;41754;51.498;7.540;2023-06-10T10:40:33;100325.53;;;28.06;34.26
16190;BME280;41754;51.498;7.540;2023-06-10T10:43:02;100332.84;;;28.44;34.59
16190;BME280;41754;51.498;7.540;2023-06-10T10:45:33;100319.00;;;28.66;34.48
16190;BME280;41754;51.498;7.540;2023-06-10T10:48:05;100323.38;;;28.67;34.66
16190;BME280;41754;51.498;7.540;2023-06-10T10:50:38;100313.25;;;28.56;34.91
16190;BME280;41754;51.498;7.540;2023-06-10T10:53:07;100319.00;;;28.98;34.74
16190;BME280;41754;51.498;7.540;2023-06-10T10:55:36;100313.34;;;28.74;35.41
16190;BME280;41754;51.498;7.540;2023-06-10T10:58:06;100313.41;;;28.93;32.28
16190;BME280;41754;51.498;7.540;2023-06-10T11:00:37;100315.91;;;29.19;32.46
16190;BME280;41754;51.498;7.540;2023-06-10T11:03:06;100316.56;;;29.58;32.77
16190;BME280;41754;51.498;7.540;2023-06-10T11:05:39;100312.81;;;29.96;30.37
16190;BME280;41754;51.498;7.540;2023-06-10T11:08:08;100309.16;;;30.21;31.11
16190;BME280;41754;51.498;7.540;2023-06-10T11:10:38;100309.81;;;30.35;30.02
16190;BME280;41754;51.498;7.540;2023-06-10T11:13:09;100308.75;;;30.78;31.52
16190;BME280;41754;51.498;7.540;2023-06-10T11:15:43;100299.31;;;30.69;29.10
16190;BME280;41754;51.498;7.540;2023-06-10T11:18:14;100299.69;;;31.43;29.14
16190;BME280;41754;51.498;7.540;2023-06-10T11:20:52;100302.91;;;31.17;28.74
16190;BME280;41754;51.498;7.540;2023-06-10T11:23:39;100307.41;;;31.58;29.08
16190;BME280;41754;51.498;7.540;2023-06-10T11:26:31;100296.31;;;31.24;27.64
16190;BME280;41754;51.498;7.540;2023-06-10T11:29:04;100289.56;;;31.62;29.51
16190;BME280;41754;51.498;7.540;2023-06-10T11:31:40;100300.41;;;32.15;28.58
16190;BME280;41754;51.498;7.540;2023-06-10T11:34:09;100291.91;;;32.11;28.27
16190;BME280;41754;51.498;7.540;2023-06-10T11:36:38;100289.56;;;32.03;26.88
16190;BME280;41754;51.498;7.540;2023-06-10T11:39:09;100284.97;;;31.92;26.12
16190;BME280;41754;51.498;7.540;2023-06-10T11:41:39;100292.31;;;32.49;25.70
16190;BME280;41754;51.498;7.540;2023-06-10T11:44:09;100296.25;;;32.41;25.56
16190;BME280;41754;51.498;7.540;2023-06-10T11:46:38;100284.38;;;32.47;26.32
16190;BME280;41754;51.498;7.540;2023-06-10T11:49:06;100289.47;;;32.89;28.30
16190;BME280;41754;51.498;7.540;2023-06-10T11:51:36;100286.56;;;33.13;26.77
16190;BME280;41754;51.498;7.540;2023-06-10T11:54:06;100289.47;;;33.23;26.02
16190;BME280;41754;51.498;7.540;2023-06-10T11:56:35;100290.63;;;33.27;25.17
16190;BME280;41754;51.498;7.540;2023-06-10T11:59:05;100286.78;;;33.68;25.49
16190;BME280;41754;51.498;7.540;2023-06-10T12:01:37;100287.53;;;33.63;25.72
16190;BME280;41754;51.498;7.540;2023-06-10T12:04:11;100281.75;;;33.37;24.93
16190;BME280;41754;51.498;7.540;2023-06-10T12:06:41;100275.31;;;33.65;23.33
16190;BME280;41754;51.498;7.540;2023-06-10T12:09:20;100272.75;;;34.03;23.88
16190;BME280;41754;51.498;7.540;2023-06-10T12:11:55;100275.59;;;34.41;22.65
16190;BME280;41754;51.498;7.540;2023-06-10T12:14:53;100273.97;;;34.40;25.33
16190;BME280;41754;51.498;7.540;2023-06-10T12:17:35;100262.91;;;34.24;24.41
16190;BME280;41754;51.498;7.540;2023-06-10T12:20:06;100263.28;;;33.44;23.04
16190;BME280;41754;51.498;7.540;2023-06-10T12:22:39;100261.63;;;34.37;22.23
16190;BME280;41754;51.498;7.540;2023-06-10T12:25:08;100258.25;;;34.84;21.35
16190;BME280;41754;51.498;7.540;2023-06-10T12:27:38;100263.84;;;35.58;23.52
16190;BME280;41754;51.498;7.540;2023-06-10T12:30:07;100263.00;;;35.04;24.51
16190;BME280;41754;51.498;7.540;2023-06-10T12:32:39;100262.91;;;34.56;23.19
16190;BME280;41754;51.498;7.540;2023-06-10T12:35:10;100263.31;;;35.08;21.85
16190;BME280;41754;51.498;7.540;2023-06-10T12:37:39;100259.06;;;34.85;23.96
16190;BME280;41754;51.498;7.540;2023-06-10T12:40:10;100251.34;;;34.77;22.92
16190;BME280;41754;51.498;7.540;2023-06-10T12:42:38;100252.34;;;34.70;21.01
16190;BME280;41754;51.498;7.540;2023-06-10T12:45:07;100246.59;;;35.04;20.58
16190;BME280;41754;51.498;7.540;2023-06-10T12:47:38;100250.50;;;35.14;23.23
16190;BME280;41754;51.498;7.540;2023-06-10T12:50:07;100248.53;;;35.57;21.53
16190;BME280;41754;51.498;7.540;2023-06-10T12:52:35;100239.63;;;35.24;21.38
16190;BME280;41754;51.498;7.540;2023-06-10T12:55:04;100249.88;;;36.69;19.16
16190;BME280;41754;51.498;7.540;2023-06-10T12:57:32;100243.06;;;35.52;20.50
16190;BME280;41754;51.498;7.540;2023-06-10T12:59:59;100240.78;;;36.12;18.41
16190;BME280;41754;51.498;7.540;2023-06-10T13:02:31;100247.03;;;35.92;20.46